createdAt,value
2018-08-30T00:00:58.531Z,0
2018-08-30T00:01:59.098Z,0
2018-08-30T00:02:59.637Z,0
2018-08-30T00:04:00.188Z,0
2018-08-30T00:05:00.737Z,0
2018-08-30T00:06:01.300Z,0
2018-08-30T00:07:01.832Z,0
2018-08-30T00:08:02.375Z,0
2018-08-30T00:09:02.922Z,0
2018-08-30T00:10:03.479Z,0
2018-08-30T00:11:04.028Z,0
2018-08-30T00:12:04.582Z,0
2018-08-30T00:13:05.134Z,0
2018-08-30T00:14:05.691Z,0
2018-08-30T00:15:06.245Z,0
2018-08-30T00:16:06.790Z,0
2018-08-30T00:17:07.344Z,0
2018-08-30T00:18:07.897Z,0
2018-08-30T00:19:08.447Z,0
2018-08-30T00:20:08.997Z,0
2018-08-30T00:21:09.548Z,0
2018-08-30T00:22:10.102Z,0
2018-08-30T00:23:10.655Z,0
2018-08-30T00:24:11.209Z,0
2018-08-30T00:25:11.763Z,0
2018-08-30T00:26:12.308Z,0
2018-08-30T00:27:12.859Z,0
2018-08-30T00:28:13.411Z,0
2018-08-30T00:29:13.967Z,0
2018-08-30T00:30:14.524Z,0
2018-08-30T00:31:15.074Z,0
2018-08-30T00:32:15.625Z,0
2018-08-30T00:33:16.176Z,0
2018-08-30T00:34:16.727Z,0
2018-08-30T00:35:17.284Z,0
2018-08-30T00:36:17.831Z,0
2018-08-30T00:37:18.388Z,0
2018-08-30T00:38:18.938Z,0
2018-08-30T00:39:19.493Z,0
2018-08-30T00:40:20.042Z,0
2018-08-30T00:41:20.621Z,0
2018-08-30T00:42:21.141Z,0
2018-08-30T00:43:21.700Z,0
2018-08-30T00:44:22.255Z,0
2018-08-30T00:45:22.815Z,0
2018-08-30T00:46:23.369Z,0
2018-08-30T00:47:23.918Z,0
2018-08-30T00:48:24.473Z,0
2018-08-30T00:49:25.019Z,0
2018-08-30T00:50:25.582Z,0
2018-08-30T00:51:26.130Z,0
2018-08-30T00:52:26.682Z,0
2018-08-30T00:53:27.235Z,0
2018-08-30T00:54:27.789Z,0
2018-08-30T00:55:28.352Z,0
2018-08-30T00:56:28.897Z,0
2018-08-30T00:57:29.450Z,0
2018-08-30T00:58:30.002Z,0
2018-08-30T00:59:30.557Z,0
2018-08-30T01:00:31.108Z,0
2018-08-30T01:01:31.659Z,0
2018-08-30T01:02:32.226Z,0
2018-08-30T01:03:32.775Z,0
2018-08-30T01:04:33.323Z,0
2018-08-30T01:05:33.874Z,0
2018-08-30T01:06:34.470Z,0
2018-08-30T01:07:35.027Z,0
2018-08-30T01:08:35.582Z,0
2018-08-30T01:09:36.135Z,0
2018-08-30T01:10:36.696Z,0
2018-08-30T01:11:37.245Z,0
2018-08-30T01:12:37.798Z,0
2018-08-30T01:13:38.355Z,0
2018-08-30T01:14:38.901Z,0
2018-08-30T01:15:39.451Z,0
2018-08-30T01:16:40.003Z,0
2018-08-30T01:17:40.556Z,0
2018-08-30T01:18:41.114Z,0
2018-08-30T01:19:41.664Z,0
2018-08-30T01:20:42.211Z,0
2018-08-30T01:21:42.765Z,0
2018-08-30T01:22:43.317Z,0
2018-08-30T01:23:43.871Z,0
2018-08-30T01:24:44.420Z,0
2018-08-30T01:25:44.966Z,0
2018-08-30T01:26:45.524Z,0
2018-08-30T01:27:46.075Z,0
2018-08-30T01:28:46.625Z,0
2018-08-30T01:29:47.184Z,0
2018-08-30T01:30:47.730Z,0
2018-08-30T01:31:48.286Z,0
2018-08-30T01:32:48.834Z,0
2018-08-30T01:33:49.380Z,0
2018-08-30T01:34:49.938Z,0
2018-08-30T01:35:50.490Z,0
2018-08-30T01:36:51.042Z,0
2018-08-30T01:37:51.593Z,0
2018-08-30T01:38:52.147Z,0
2018-08-30T01:39:52.694Z,0
2018-08-30T01:40:53.244Z,0
2018-08-30T01:41:53.791Z,0
2018-08-30T01:42:54.351Z,0
2018-08-30T01:43:54.900Z,0
2018-08-30T01:44:55.453Z,0
2018-08-30T01:45:56.011Z,0
2018-08-30T01:46:56.561Z,0
2018-08-30T01:47:57.116Z,0
2018-08-30T01:48:57.665Z,0
2018-08-30T01:49:58.213Z,0
2018-08-30T01:50:58.764Z,0
2018-08-30T01:51:59.318Z,0
2018-08-30T01:52:59.873Z,0
2018-08-30T01:54:00.424Z,0
2018-08-30T01:55:00.978Z,0
2018-08-30T01:56:01.531Z,0
2018-08-30T01:57:02.085Z,0
2018-08-30T01:58:02.638Z,0
2018-08-30T01:59:03.193Z,0
2018-08-30T02:00:03.777Z,0
2018-08-30T02:01:04.297Z,0
2018-08-30T02:02:04.853Z,0
2018-08-30T02:03:05.403Z,0
2018-08-30T02:04:05.956Z,0
2018-08-30T02:05:06.498Z,0
2018-08-30T02:06:07.046Z,0
2018-08-30T02:07:07.591Z,0
2018-08-30T02:08:08.143Z,0
2018-08-30T02:09:08.693Z,0
2018-08-30T02:10:09.244Z,0
2018-08-30T02:11:09.793Z,0
2018-08-30T02:12:10.345Z,0
2018-08-30T02:13:10.892Z,0
2018-08-30T02:14:11.448Z,0
2018-08-30T02:15:12.007Z,0
2018-08-30T02:16:12.555Z,0
2018-08-30T02:17:13.107Z,0
2018-08-30T02:18:13.667Z,0
2018-08-30T02:19:14.207Z,0
2018-08-30T02:20:14.751Z,0
2018-08-30T02:21:15.295Z,0
2018-08-30T02:22:15.876Z,0
2018-08-30T02:23:16.418Z,0
2018-08-30T02:24:16.955Z,0
2018-08-30T02:25:17.511Z,0
2018-08-30T02:26:18.062Z,0
2018-08-30T02:27:18.617Z,0
2018-08-30T02:28:19.165Z,0
2018-08-30T02:29:19.724Z,0
2018-08-30T02:30:20.282Z,0
2018-08-30T02:31:20.835Z,0
2018-08-30T02:32:21.389Z,0
2018-08-30T02:33:21.940Z,0
2018-08-30T02:34:22.496Z,0
2018-08-30T02:35:23.043Z,0
2018-08-30T02:36:23.602Z,0
2018-08-30T02:37:24.156Z,0
2018-08-30T02:38:24.725Z,0
2018-08-30T02:39:25.285Z,0
2018-08-30T02:40:25.826Z,0
2018-08-30T02:41:26.382Z,0
2018-08-30T02:42:26.936Z,0
2018-08-30T02:43:27.483Z,0
2018-08-30T02:44:28.028Z,0
2018-08-30T02:45:28.585Z,0
2018-08-30T02:46:29.136Z,0
2018-08-30T02:47:29.689Z,0
2018-08-30T02:48:30.251Z,0
2018-08-30T02:49:30.789Z,0
2018-08-30T02:50:31.345Z,0
2018-08-30T02:51:31.908Z,0
2018-08-30T02:52:32.453Z,0
2018-08-30T02:53:33.001Z,0
2018-08-30T02:54:33.554Z,0
2018-08-30T02:55:34.106Z,0
2018-08-30T02:56:34.652Z,0
2018-08-30T02:57:35.207Z,0
2018-08-30T02:58:35.763Z,0
2018-08-30T02:59:36.314Z,0
2018-08-30T03:00:36.870Z,0
2018-08-30T03:01:37.420Z,0
2018-08-30T03:02:37.966Z,0
2018-08-30T03:03:38.512Z,0
2018-08-30T03:04:39.058Z,0
2018-08-30T03:05:39.613Z,0
2018-08-30T03:06:40.158Z,0
2018-08-30T03:07:40.712Z,0
2018-08-30T03:08:41.264Z,0
2018-08-30T03:09:41.822Z,0
2018-08-30T03:10:42.397Z,0
2018-08-30T03:11:42.962Z,0
2018-08-30T03:12:43.526Z,0
2018-08-30T03:13:44.098Z,0
2018-08-30T03:14:44.672Z,0
2018-08-30T03:15:45.241Z,0
2018-08-30T03:16:45.814Z,0
2018-08-30T03:17:46.398Z,0
2018-08-30T03:18:46.989Z,0
2018-08-30T03:19:47.548Z,0
2018-08-30T03:20:48.111Z,0
2018-08-30T03:21:48.679Z,0
2018-08-30T03:22:49.268Z,0
2018-08-30T03:23:49.861Z,0
2018-08-30T03:24:50.440Z,0
2018-08-30T03:25:51.023Z,0
2018-08-30T03:26:51.613Z,0
2018-08-30T03:27:52.194Z,0
2018-08-30T03:28:52.781Z,0
2018-08-30T03:29:53.371Z,0
2018-08-30T03:30:54.059Z,0
2018-08-30T03:31:54.569Z,0
2018-08-30T03:32:55.133Z,0
2018-08-30T03:33:55.713Z,0
2018-08-30T03:34:56.274Z,0
2018-08-30T03:35:56.842Z,0
2018-08-30T03:36:57.427Z,0
2018-08-30T03:37:58.020Z,0
2018-08-30T03:38:58.613Z,0
2018-08-30T03:39:59.187Z,0
2018-08-30T03:40:59.754Z,0
2018-08-30T03:42:00.335Z,0
2018-08-30T03:43:00.922Z,0
2018-08-30T03:44:01.510Z,0
2018-08-30T03:45:02.095Z,0
2018-08-30T03:46:02.681Z,0
2018-08-30T03:47:03.296Z,0
2018-08-30T03:48:03.850Z,0
2018-08-30T03:49:04.414Z,0
2018-08-30T03:50:05.002Z,0
2018-08-30T03:51:05.586Z,0
2018-08-30T03:52:06.177Z,0
2018-08-30T03:53:06.763Z,0
2018-08-30T03:54:07.352Z,0
2018-08-30T03:55:07.972Z,0
2018-08-30T03:56:08.478Z,0
2018-08-30T03:57:09.062Z,0
2018-08-30T03:58:09.648Z,0
2018-08-30T03:59:10.213Z,0
2018-08-30T04:00:10.796Z,0
2018-08-30T04:01:11.378Z,0
2018-08-30T04:02:11.950Z,0
2018-08-30T04:03:12.540Z,0
2018-08-30T04:04:13.139Z,0
2018-08-30T04:05:13.719Z,0
2018-08-30T04:06:14.300Z,0
2018-08-30T04:07:14.891Z,0
2018-08-30T04:08:15.478Z,0
2018-08-30T04:09:16.059Z,0
2018-08-30T04:10:16.625Z,0
2018-08-30T04:11:17.215Z,0
2018-08-30T04:12:17.808Z,0
2018-08-30T04:13:18.410Z,0
2018-08-30T04:14:18.973Z,0
2018-08-30T04:15:19.562Z,0
2018-08-30T04:16:20.126Z,4
2018-08-30T04:17:20.707Z,4
2018-08-30T04:18:21.275Z,0
2018-08-30T04:19:21.854Z,4
2018-08-30T04:20:22.441Z,8
2018-08-30T04:21:23.003Z,8
2018-08-30T04:22:23.593Z,8
2018-08-30T04:23:24.185Z,8
2018-08-30T04:24:24.783Z,12
2018-08-30T04:25:25.359Z,12
2018-08-30T04:26:25.924Z,16
2018-08-30T04:27:26.511Z,16
2018-08-30T04:28:27.096Z,16
2018-08-30T04:29:27.660Z,20
2018-08-30T04:30:28.252Z,24
2018-08-30T04:31:28.851Z,24
2018-08-30T04:32:29.421Z,32
2018-08-30T04:33:30.009Z,32
2018-08-30T04:34:30.596Z,36
2018-08-30T04:35:31.180Z,36
2018-08-30T04:36:31.757Z,36
2018-08-30T04:37:32.315Z,40
2018-08-30T04:38:32.874Z,44
2018-08-30T04:39:33.422Z,40
2018-08-30T04:40:33.981Z,40
2018-08-30T04:41:34.533Z,48
2018-08-30T04:42:35.146Z,48
2018-08-30T04:43:35.669Z,44
2018-08-30T04:44:36.232Z,44
2018-08-30T04:45:36.794Z,44
2018-08-30T04:46:37.340Z,48
2018-08-30T04:47:37.893Z,64
2018-08-30T04:48:38.446Z,88
2018-08-30T04:49:39.003Z,132
2018-08-30T04:50:39.716Z,184
2018-08-30T04:51:40.105Z,248
2018-08-30T04:52:40.701Z,308
2018-08-30T04:53:41.244Z,340
2018-08-30T04:54:41.760Z,356
2018-08-30T04:55:42.321Z,364
2018-08-30T04:56:42.875Z,360
2018-08-30T04:57:43.426Z,348
2018-08-30T04:58:43.985Z,352
2018-08-30T04:59:44.544Z,376
2018-08-30T05:00:45.092Z,380
2018-08-30T05:01:45.756Z,380
2018-08-30T05:02:46.210Z,416
2018-08-30T05:03:46.769Z,448
2018-08-30T05:04:47.317Z,452
2018-08-30T05:05:47.878Z,452
2018-08-30T05:06:48.432Z,496
2018-08-30T05:07:48.988Z,624
2018-08-30T05:08:49.538Z,740
2018-08-30T05:09:50.103Z,768
2018-08-30T05:10:50.660Z,824
2018-08-30T05:11:51.219Z,924
2018-08-30T05:12:51.776Z,984
2018-08-30T05:13:52.327Z,996
2018-08-30T05:14:52.890Z,1016
2018-08-30T05:15:53.437Z,1124
2018-08-30T05:16:53.996Z,1292
2018-08-30T05:17:54.552Z,1480
2018-08-30T05:18:55.116Z,1652
2018-08-30T05:19:55.677Z,1796
2018-08-30T05:20:56.228Z,1900
2018-08-30T05:21:56.790Z,1968
2018-08-30T05:22:57.341Z,2004
2018-08-30T05:23:57.892Z,2056
2018-08-30T05:24:58.440Z,2096
2018-08-30T05:25:58.999Z,2128
2018-08-30T05:26:59.557Z,2144
2018-08-30T05:28:00.112Z,2140
2018-08-30T05:29:00.675Z,2120
2018-08-30T05:30:01.235Z,2120
2018-08-30T05:31:01.793Z,2168
2018-08-30T05:32:02.344Z,2260
2018-08-30T05:33:02.904Z,2388
2018-08-30T05:34:03.466Z,2516
2018-08-30T05:35:04.029Z,2660
2018-08-30T05:36:04.590Z,2808
2018-08-30T05:37:05.161Z,2936
2018-08-30T05:38:05.776Z,3048
2018-08-30T05:39:06.359Z,3180
2018-08-30T05:40:06.908Z,3368
2018-08-30T05:41:07.471Z,3548
2018-08-30T05:42:08.034Z,3504
2018-08-30T05:43:08.590Z,3124
2018-08-30T05:44:09.140Z,2852
2018-08-30T05:45:09.689Z,2616
2018-08-30T05:46:10.265Z,2516
2018-08-30T05:47:10.884Z,2660
2018-08-30T05:48:11.439Z,2648
2018-08-30T05:49:12.001Z,2560
2018-08-30T05:50:12.559Z,2444
2018-08-30T05:51:13.107Z,2540
2018-08-30T05:52:13.671Z,2680
2018-08-30T05:53:14.227Z,3016
2018-08-30T05:54:14.827Z,3388
2018-08-30T05:55:15.337Z,3888
2018-08-30T05:56:15.897Z,4096
2018-08-30T05:57:16.452Z,3944
2018-08-30T05:58:17.001Z,4264
2018-08-30T05:59:17.561Z,4276
2018-08-30T06:00:18.116Z,4532
2018-08-30T06:01:18.671Z,4040
2018-08-30T06:02:19.230Z,3792
2018-08-30T06:03:19.792Z,3888
2018-08-30T06:04:20.342Z,3932
2018-08-30T06:05:20.901Z,4224
2018-08-30T06:06:21.460Z,4100
2018-08-30T06:07:22.143Z,4092
2018-08-30T06:08:22.596Z,4576
2018-08-30T06:09:23.132Z,4956
2018-08-30T06:10:23.685Z,4252
2018-08-30T06:11:24.245Z,3752
2018-08-30T06:12:24.800Z,4140
2018-08-30T06:13:25.410Z,4448
2018-08-30T06:14:25.971Z,3168
2018-08-30T06:15:26.533Z,3688
2018-08-30T06:16:27.092Z,4932
2018-08-30T06:17:27.696Z,5616
2018-08-30T06:18:28.303Z,5736
2018-08-30T06:19:28.889Z,6684
2018-08-30T06:20:29.448Z,5520
2018-08-30T06:21:30.009Z,6188
2018-08-30T06:22:30.569Z,5996
2018-08-30T06:23:31.182Z,5744
2018-08-30T06:24:31.741Z,6672
2018-08-30T06:25:32.305Z,7208
2018-08-30T06:26:32.861Z,8244
2018-08-30T06:27:33.449Z,9052
2018-08-30T06:28:34.006Z,9172
2018-08-30T06:29:34.568Z,10008
2018-08-30T06:30:35.127Z,10508
2018-08-30T06:31:35.690Z,10792
2018-08-30T06:32:36.249Z,11092
2018-08-30T06:33:36.807Z,12000
2018-08-30T06:34:37.392Z,12756
2018-08-30T06:35:37.935Z,12716
2018-08-30T06:36:38.501Z,12332
2018-08-30T06:37:39.056Z,12336
2018-08-30T06:38:39.888Z,12132
2018-08-30T06:39:40.373Z,11784
2018-08-30T06:40:40.933Z,12356
2018-08-30T06:41:41.547Z,11240
2018-08-30T06:42:42.109Z,11584
2018-08-30T06:43:42.669Z,12832
2018-08-30T06:44:43.232Z,14268
2018-08-30T06:45:43.793Z,15924
2018-08-30T06:46:44.349Z,18240
2018-08-30T06:47:44.910Z,16116
2018-08-30T06:48:45.490Z,15504
2018-08-30T06:49:46.025Z,15412
2018-08-30T06:50:46.585Z,15080
2018-08-30T06:51:47.297Z,14516
2018-08-30T06:52:47.864Z,14936
2018-08-30T06:53:48.412Z,15564
2018-08-30T06:54:48.973Z,14800
2018-08-30T06:55:49.535Z,13740
2018-08-30T06:56:50.098Z,12956
2018-08-30T06:57:50.660Z,14020
2018-08-30T06:58:51.223Z,15724
2018-08-30T06:59:51.786Z,14812
2018-08-30T07:00:52.349Z,16564
2018-08-30T07:01:52.915Z,21248
2018-08-30T07:02:53.480Z,18112
2018-08-30T07:03:54.034Z,13632
2018-08-30T07:04:54.600Z,8140
2018-08-30T07:05:55.156Z,5620
2018-08-30T07:06:55.721Z,5488
2018-08-30T07:07:56.280Z,5800
2018-08-30T07:08:56.839Z,6068
2018-08-30T07:09:57.399Z,6256
2018-08-30T07:10:57.959Z,7084
2018-08-30T07:11:58.529Z,8276
2018-08-30T07:12:59.089Z,9532
2018-08-30T07:13:59.648Z,11284
2018-08-30T07:15:00.249Z,14348
2018-08-30T07:16:00.753Z,27584
2018-08-30T07:17:01.317Z,31264
2018-08-30T07:18:01.889Z,29888
2018-08-30T07:19:02.449Z,17568
2018-08-30T07:20:03.013Z,22144
2018-08-30T07:21:03.664Z,12436
2018-08-30T07:22:04.143Z,13820
2018-08-30T07:23:04.702Z,26368
2018-08-30T07:24:05.288Z,27008
2018-08-30T07:25:05.857Z,26080
2018-08-30T07:26:06.419Z,18380
2018-08-30T07:27:06.988Z,22688
2018-08-30T07:28:07.553Z,28704
2018-08-30T07:29:08.117Z,31616
2018-08-30T07:30:08.685Z,35552
2018-08-30T07:31:09.246Z,30432
2018-08-30T07:32:09.805Z,19584
2018-08-30T07:33:10.372Z,32576
2018-08-30T07:34:10.992Z,19776
2018-08-30T07:35:11.625Z,30656
2018-08-30T07:36:12.107Z,18572
2018-08-30T07:37:12.669Z,30240
2018-08-30T07:38:13.234Z,25440
2018-08-30T07:39:13.802Z,39584
2018-08-30T07:40:14.369Z,35136
2018-08-30T07:41:14.942Z,31392
2018-08-30T07:42:15.504Z,14556
2018-08-30T07:43:16.071Z,15480
2018-08-30T07:44:16.705Z,19648
2018-08-30T07:45:17.197Z,29568
2018-08-30T07:46:17.764Z,37696
2018-08-30T07:47:18.437Z,32032
2018-08-30T07:48:18.894Z,14916
2018-08-30T07:49:19.756Z,14612
2018-08-30T07:50:20.324Z,13972
2018-08-30T07:51:20.882Z,15536
2018-08-30T07:52:21.447Z,17844
2018-08-30T07:53:22.013Z,20768
2018-08-30T07:54:22.588Z,20512
2018-08-30T07:55:23.132Z,18152
2018-08-30T07:56:23.690Z,17352
2018-08-30T07:57:24.274Z,36032
2018-08-30T07:58:24.812Z,36160
2018-08-30T07:59:25.379Z,36352
2018-08-30T08:00:26.097Z,37088
2018-08-30T08:01:26.665Z,37280
2018-08-30T08:02:27.248Z,38688
2018-08-30T08:03:27.808Z,41248
2018-08-30T08:04:28.374Z,42624
2018-08-30T08:05:28.946Z,43392
2018-08-30T08:06:29.511Z,43616
2018-08-30T08:07:30.077Z,45728
2018-08-30T08:08:30.638Z,45728
2018-08-30T08:09:31.212Z,20928
2018-08-30T08:10:31.777Z,19264
2018-08-30T08:11:32.350Z,20064
2018-08-30T08:12:32.931Z,21536
2018-08-30T08:13:33.486Z,25216
2018-08-30T08:14:34.048Z,52832
2018-08-30T08:15:34.649Z,49760
2018-08-30T08:16:35.193Z,22368
2018-08-30T08:17:35.761Z,23040
2018-08-30T08:18:36.326Z,15100
2018-08-30T08:19:36.891Z,16552
2018-08-30T08:20:37.461Z,18772
2018-08-30T08:21:38.087Z,19044
2018-08-30T08:22:38.654Z,19048
2018-08-30T08:24:54.707Z,24544
2018-08-30T08:25:55.328Z,50304
2018-08-30T08:26:55.968Z,53344
2018-08-30T08:27:56.589Z,55904
2018-08-30T08:28:57.181Z,44032
2018-08-30T08:29:57.739Z,20448
2018-08-30T08:30:58.309Z,20096
2018-08-30T08:31:58.873Z,17704
2018-08-30T08:32:59.437Z,19160
2018-08-30T08:34:00.000Z,19884
2018-08-30T08:35:00.569Z,26208
2018-08-30T08:36:01.130Z,52416
2018-08-30T08:37:01.718Z,49920
2018-08-30T08:38:02.267Z,21760
2018-08-30T08:39:02.835Z,51904
2018-08-30T08:40:03.402Z,53248
2018-08-30T08:41:03.977Z,54496
2018-08-30T08:42:04.763Z,55520
2018-08-30T08:43:05.371Z,55456
2018-08-30T08:44:05.963Z,56768
2018-08-30T08:45:06.521Z,59680
2018-08-30T08:46:07.091Z,56320
2018-08-30T08:47:07.650Z,52544
2018-08-30T08:48:08.219Z,21088
2018-08-30T08:49:08.789Z,21664
2018-08-30T08:50:09.353Z,54336
2018-08-30T08:51:09.979Z,54464
2018-08-30T08:52:10.522Z,54816
2018-08-30T08:53:11.091Z,55680
2018-08-30T08:54:11.654Z,56640
2018-08-30T08:55:12.222Z,57376
2018-08-30T08:56:12.800Z,60000
2018-08-30T08:57:13.401Z,61152
2018-08-30T08:58:13.981Z,26688
2018-08-30T08:59:14.597Z,29248
2018-08-30T09:00:15.129Z,45664
2018-08-30T09:01:15.707Z,24032
2018-08-30T09:02:16.264Z,24352
2018-08-30T09:03:16.837Z,25472
2018-08-30T09:04:17.406Z,62240
2018-08-30T09:05:17.966Z,63456
2018-08-30T09:06:18.544Z,29344
2018-08-30T09:07:19.137Z,51552
2018-08-30T09:08:19.670Z,23584
2018-08-30T09:09:20.271Z,23648
2018-08-30T09:10:20.847Z,62784
2018-08-30T09:11:21.414Z,59104
2018-08-30T09:12:21.985Z,59584
2018-08-30T09:13:22.563Z,42496
2018-08-30T09:14:23.176Z,58496
2018-08-30T09:15:23.727Z,59584
2018-08-30T09:16:24.277Z,62912
2018-08-30T09:17:24.836Z,65376
2018-08-30T09:18:25.430Z,65408
2018-08-30T09:19:25.979Z,45728
2018-08-30T09:20:26.541Z,63520
2018-08-30T09:21:27.116Z,64224
2018-08-30T09:22:27.690Z,50656
2018-08-30T09:23:28.258Z,22784
2018-08-30T09:24:28.816Z,35424
2018-08-30T09:25:29.386Z,18264
2018-08-30T09:26:29.961Z,20448
2018-08-30T09:27:30.546Z,24000
2018-08-30T09:28:31.108Z,26368
2018-08-30T09:29:31.684Z,56864
2018-08-30T09:30:32.246Z,56704
2018-08-30T09:31:32.815Z,41120
2018-08-30T09:32:33.376Z,62912
2018-08-30T09:33:33.954Z,64960
2018-08-30T09:34:34.541Z,66720
2018-08-30T09:35:35.111Z,66944
2018-08-30T09:36:35.689Z,63552
2018-08-30T09:37:36.256Z,70112
2018-08-30T09:38:36.826Z,26560
2018-08-30T09:39:37.395Z,24224
2018-08-30T09:40:37.989Z,26208
2018-08-30T09:41:38.575Z,66656
2018-08-30T09:42:39.150Z,75584
2018-08-30T09:43:39.755Z,75168
2018-08-30T09:44:40.527Z,43744
2018-08-30T09:45:41.103Z,43840
2018-08-30T09:46:41.676Z,22944
2018-08-30T09:47:42.252Z,28256
2018-08-30T09:48:42.814Z,64672
2018-08-30T09:49:43.397Z,62688
2018-08-30T09:50:43.952Z,57600
2018-08-30T09:51:44.529Z,46144
2018-08-30T09:52:45.089Z,62240
2018-08-30T09:53:45.661Z,71328
2018-08-30T09:54:46.258Z,77440
2018-08-30T09:55:46.903Z,75264
2018-08-30T09:56:47.406Z,32416
2018-08-30T09:57:47.956Z,26944
2018-08-30T09:58:48.516Z,28288
2018-08-30T09:59:49.096Z,75840
2018-08-30T10:00:49.667Z,53536
2018-08-30T10:01:50.241Z,73664
2018-08-30T10:02:50.809Z,70688
2018-08-30T10:03:51.414Z,70336
2018-08-30T10:04:51.946Z,73056
2018-08-30T10:05:52.517Z,75488
2018-08-30T10:06:53.088Z,76960
2018-08-30T10:07:53.658Z,77024
2018-08-30T10:08:54.226Z,24544
2018-08-30T10:09:54.795Z,26880
2018-08-30T10:10:55.362Z,34272
2018-08-30T10:11:55.927Z,84512
2018-08-30T10:12:56.498Z,87616
2018-08-30T10:13:57.068Z,84768
2018-08-30T10:14:57.633Z,27200
2018-08-30T10:15:58.286Z,24416
2018-08-30T10:16:58.761Z,34976
2018-08-30T10:17:59.330Z,76608
2018-08-30T10:18:59.909Z,75680
2018-08-30T10:20:00.470Z,75744
2018-08-30T10:21:01.039Z,77088
2018-08-30T10:22:01.612Z,80672
2018-08-30T10:23:02.179Z,83296
2018-08-30T10:24:02.769Z,31424
2018-08-30T10:25:03.338Z,82400
2018-08-30T10:26:03.895Z,25152
2018-08-30T10:27:04.462Z,20672
2018-08-30T10:28:05.026Z,68064
2018-08-30T10:29:05.594Z,79200
2018-08-30T10:30:06.172Z,82688
2018-08-30T10:31:06.737Z,84384
2018-08-30T10:32:07.313Z,30304
2018-08-30T10:33:07.871Z,86848
2018-08-30T10:34:08.443Z,85472
2018-08-30T10:35:09.010Z,81376
2018-08-30T10:36:09.570Z,78944
2018-08-30T10:37:10.228Z,79616
2018-08-30T10:38:10.702Z,82560
2018-08-30T10:39:11.277Z,85760
2018-08-30T10:40:11.851Z,87584
2018-08-30T10:41:12.421Z,85760
2018-08-30T10:42:13.009Z,76064
2018-08-30T10:43:13.569Z,78784
2018-08-30T10:44:14.146Z,29024
2018-08-30T10:45:14.727Z,75328
2018-08-30T10:46:15.602Z,72480
2018-08-30T10:47:16.174Z,75872
2018-08-30T10:48:16.744Z,64416
2018-08-30T10:49:17.365Z,75520
2018-08-30T10:50:17.886Z,58176
2018-08-30T10:51:18.463Z,43200
2018-08-30T10:52:19.028Z,52352
2018-08-30T10:53:19.599Z,21472
2018-08-30T10:54:20.178Z,21248
2018-08-30T10:55:20.762Z,20992
2018-08-30T10:56:21.389Z,27648
2018-08-30T10:57:21.915Z,73696
2018-08-30T10:58:22.500Z,73504
2018-08-30T10:59:23.059Z,74112
2018-08-30T11:00:23.634Z,73984
2018-08-30T11:01:24.199Z,76480
2018-08-30T11:02:24.785Z,78752
2018-08-30T11:03:25.356Z,80992
2018-08-30T11:04:25.978Z,81344
2018-08-30T11:05:26.501Z,82496
2018-08-30T11:06:27.072Z,83328
2018-08-30T11:07:27.636Z,81824
2018-08-30T11:08:28.213Z,79584
2018-08-30T11:09:28.784Z,77024
2018-08-30T11:10:29.359Z,76352
2018-08-30T11:11:29.935Z,74528
2018-08-30T11:12:30.505Z,74432
2018-08-30T11:13:31.125Z,74880
2018-08-30T11:14:31.662Z,75936
2018-08-30T11:15:32.225Z,74176
2018-08-30T11:16:32.807Z,72928
2018-08-30T11:17:33.387Z,73600
2018-08-30T11:18:33.957Z,74400
2018-08-30T11:19:34.541Z,73504
2018-08-30T11:20:35.103Z,74528
2018-08-30T11:21:35.672Z,75712
2018-08-30T11:22:36.245Z,75616
2018-08-30T11:23:36.828Z,75264
2018-08-30T11:24:38.384Z,75040
2018-08-30T11:25:38.970Z,75200
2018-08-30T11:26:39.519Z,74432
2018-08-30T11:27:40.085Z,72800
2018-08-30T11:28:40.660Z,72576
2018-08-30T11:29:41.250Z,73248
2018-08-30T11:30:41.804Z,76224
2018-08-30T11:31:42.382Z,76320
2018-08-30T11:32:42.975Z,77568
2018-08-30T11:33:43.556Z,76480
2018-08-30T11:34:44.114Z,75808
2018-08-30T11:35:44.686Z,27840
2018-08-30T11:36:45.255Z,75648
2018-08-30T11:37:45.883Z,71968
2018-08-30T11:38:46.388Z,80160
2018-08-30T11:39:46.982Z,78624
2018-08-30T11:40:47.552Z,38816
2018-08-30T11:41:48.200Z,80832
2018-08-30T11:42:48.742Z,58080
2018-08-30T11:43:49.312Z,37056
2018-08-30T11:44:49.884Z,28288
2018-08-30T11:45:50.453Z,78720
2018-08-30T11:46:51.025Z,83072
2018-08-30T11:47:51.640Z,68896
2018-08-30T11:48:52.200Z,84352
2018-08-30T11:49:52.775Z,81824
2018-08-30T11:50:53.346Z,81664
2018-08-30T11:51:53.918Z,81696
2018-08-30T11:52:54.488Z,82112
2018-08-30T11:53:55.061Z,81952
2018-08-30T11:54:55.632Z,83040
2018-08-30T11:55:56.208Z,83040
2018-08-30T11:56:56.784Z,83712
2018-08-30T11:57:57.380Z,85376
2018-08-30T11:58:57.925Z,84832
2018-08-30T11:59:58.539Z,83040
2018-08-30T12:00:59.194Z,81312
2018-08-30T12:01:59.644Z,80832
2018-08-30T12:03:00.225Z,79168
2018-08-30T12:04:00.819Z,51872
2018-08-30T12:05:01.408Z,21952
2018-08-30T12:06:01.994Z,20960
2018-08-30T12:07:02.635Z,22784
2018-08-30T12:08:03.211Z,75360
2018-08-30T12:09:03.745Z,68256
2018-08-30T12:10:04.368Z,30336
2018-08-30T12:11:05.090Z,24608
2018-08-30T12:12:05.513Z,24544
2018-08-30T12:13:06.096Z,25440
2018-08-30T12:14:06.653Z,26624
2018-08-30T12:15:07.219Z,26144
2018-08-30T12:16:07.791Z,28896
2018-08-30T12:17:08.359Z,75200
2018-08-30T12:18:08.931Z,74240
2018-08-30T12:19:09.534Z,73760
2018-08-30T12:20:10.080Z,73216
2018-08-30T12:21:10.655Z,71424
2018-08-30T12:22:11.226Z,71328
2018-08-30T12:23:11.799Z,70400
2018-08-30T12:24:12.373Z,70336
2018-08-30T12:25:12.947Z,70208
2018-08-30T12:26:13.525Z,70592
2018-08-30T12:27:14.095Z,71360
2018-08-30T12:28:14.678Z,72352
2018-08-30T12:29:15.260Z,73120
2018-08-30T12:30:15.861Z,72736
2018-08-30T12:31:16.497Z,72512
2018-08-30T12:32:16.976Z,72704
2018-08-30T12:33:17.577Z,73824
2018-08-30T12:34:18.107Z,74976
2018-08-30T12:35:18.720Z,74656
2018-08-30T12:36:19.249Z,72896
2018-08-30T12:37:19.823Z,26208
2018-08-30T12:38:20.379Z,23488
2018-08-30T12:39:21.041Z,23264
2018-08-30T12:40:21.660Z,23072
2018-08-30T12:41:22.165Z,22496
2018-08-30T12:42:22.732Z,20512
2018-08-30T12:43:23.315Z,18256
2018-08-30T12:44:23.844Z,17580
2018-08-30T12:45:24.424Z,17116
2018-08-30T12:46:24.973Z,17196
2018-08-30T12:47:25.595Z,17416
2018-08-30T12:48:26.164Z,18432
2018-08-30T12:49:26.782Z,18312
2018-08-30T12:50:27.500Z,19192
2018-08-30T12:51:28.163Z,20488
2018-08-30T12:52:28.726Z,22912
2018-08-30T12:53:29.267Z,68704
2018-08-30T12:54:29.850Z,68736
2018-08-30T12:55:30.443Z,70496
2018-08-30T12:56:30.937Z,73664
2018-08-30T12:57:31.518Z,43808
2018-08-30T12:58:32.125Z,43712
2018-08-30T12:59:32.718Z,79264
2018-08-30T13:00:33.266Z,79712
2018-08-30T13:01:33.808Z,78624
2018-08-30T13:02:34.431Z,35040
2018-08-30T13:03:34.980Z,26624
2018-08-30T13:04:35.704Z,24896
2018-08-30T13:05:36.289Z,24384
2018-08-30T13:06:36.739Z,24608
2018-08-30T13:07:37.405Z,25888
2018-08-30T13:08:38.084Z,36064
2018-08-30T13:09:38.687Z,29344
2018-08-30T13:10:39.385Z,66336
2018-08-30T13:11:40.090Z,49664
2018-08-30T13:12:40.773Z,26240
2018-08-30T13:13:41.208Z,68512
2018-08-30T13:14:41.776Z,23104
2018-08-30T13:15:42.481Z,20240
2018-08-30T13:16:43.074Z,25952
2018-08-30T13:17:43.572Z,38688
2018-08-30T13:18:44.160Z,64288
2018-08-30T13:19:44.932Z,53952
2018-08-30T13:20:45.407Z,64064
2018-08-30T13:21:46.079Z,64096
2018-08-30T13:22:46.914Z,63744
2018-08-30T13:23:47.309Z,63584
2018-08-30T13:24:48.196Z,64064
2018-08-30T13:25:48.711Z,65472
2018-08-30T13:26:49.298Z,66208
2018-08-30T13:27:49.706Z,66144
2018-08-30T13:28:50.258Z,37824
2018-08-30T13:29:51.094Z,68416
2018-08-30T13:30:51.697Z,33888
2018-08-30T13:31:52.285Z,26336
2018-08-30T13:32:52.906Z,24352
2018-08-30T13:33:53.565Z,25472
2018-08-30T13:34:53.981Z,51584
2018-08-30T13:35:54.583Z,25792
2018-08-30T13:36:55.182Z,33312
2018-08-30T13:37:56.038Z,22336
2018-08-30T13:38:56.442Z,19664
2018-08-30T13:39:57.088Z,18828
2018-08-30T13:40:57.588Z,18964
2018-08-30T13:41:58.390Z,18580
2018-08-30T13:42:58.895Z,19560